createdAt,value
2019-03-24T00:02:25.306Z,22.05
2019-03-24T00:04:51.352Z,21.97
2019-03-24T00:07:17.479Z,28.47
2019-03-24T00:09:43.611Z,20.75
2019-03-24T00:12:09.733Z,29.50
2019-03-24T00:14:35.858Z,25.90
2019-03-24T00:17:02.001Z,29.15
2019-03-24T00:19:28.158Z,29.05
2019-03-24T00:21:54.308Z,27.37
2019-03-24T00:24:20.531Z,22.10
2019-03-24T00:26:50.265Z,24.85
2019-03-24T00:29:16.386Z,26.40
2019-03-24T00:31:42.586Z,27.82
2019-03-24T00:34:08.699Z,20.55
2019-03-24T00:36:34.861Z,23.30
2019-03-24T00:39:00.991Z,26.73
2019-03-24T00:41:29.587Z,29.32
2019-03-24T00:43:55.714Z,27.05
2019-03-24T00:46:21.835Z,26.42
2019-03-24T00:48:47.905Z,25.48
2019-03-24T00:51:14.078Z,29.65
2019-03-24T00:53:40.326Z,30.20
2019-03-24T00:56:06.550Z,28.00
2019-03-24T00:58:32.679Z,28.45
2019-03-24T01:00:58.917Z,25.97
2019-03-24T01:03:25.154Z,24.27
2019-03-24T01:05:51.374Z,27.37
2019-03-24T01:08:17.713Z,26.75
2019-03-24T01:10:43.839Z,34.40
2019-03-24T01:13:11.667Z,24.92
2019-03-24T01:15:47.309Z,24.82
2019-03-24T01:18:05.841Z,28.32
2019-03-24T01:20:32.007Z,33.53
2019-03-24T01:22:58.236Z,26.25
2019-03-24T01:25:25.989Z,25.37
2019-03-24T01:27:53.404Z,27.93
2019-03-24T01:30:19.644Z,27.10
2019-03-24T01:32:45.789Z,25.05
2019-03-24T01:35:11.927Z,24.55
2019-03-24T01:37:38.068Z,29.55
2019-03-24T01:40:05.422Z,25.30
2019-03-24T01:42:31.551Z,25.65
2019-03-24T01:44:57.717Z,25.32
2019-03-24T01:47:23.878Z,24.80
2019-03-24T01:49:50.044Z,23.52
2019-03-24T01:52:16.174Z,22.98
2019-03-24T01:54:42.254Z,24.90
2019-03-24T01:57:08.385Z,24.43
2019-03-24T01:59:34.343Z,23.20
2019-03-24T02:02:00.472Z,30.43
2019-03-24T02:04:26.525Z,25.50
2019-03-24T02:06:52.667Z,31.17
2019-03-24T02:09:18.824Z,28.50
2019-03-24T02:11:44.950Z,21.90
2019-03-24T02:14:11.123Z,26.77
2019-03-24T02:16:37.246Z,23.90
2019-03-24T02:19:07.463Z,23.95
2019-03-24T02:21:31.353Z,26.52
2019-03-24T02:23:57.515Z,29.90
2019-03-24T02:26:23.771Z,28.47
2019-03-24T02:28:49.917Z,29.37
2019-03-24T02:31:15.951Z,30.70
2019-03-24T02:33:42.157Z,30.25
2019-03-24T02:36:08.277Z,23.77
2019-03-24T02:38:34.409Z,23.73
2019-03-24T02:41:00.537Z,32.40
2019-03-24T02:43:26.604Z,29.92
2019-03-24T02:45:52.718Z,23.18
2019-03-24T02:48:18.850Z,24.23
2019-03-24T02:50:46.161Z,24.80
2019-03-24T02:53:12.207Z,28.15
2019-03-24T02:55:38.322Z,25.50
2019-03-24T02:58:05.999Z,31.37
2019-03-24T03:00:32.156Z,28.10
2019-03-24T03:02:58.322Z,27.37
2019-03-24T03:05:24.579Z,24.00
2019-03-24T03:07:50.758Z,26.95
2019-03-24T03:10:17.097Z,27.32
2019-03-24T03:12:43.223Z,23.73
2019-03-24T03:15:09.883Z,26.70
2019-03-24T03:17:35.976Z,21.15
2019-03-24T03:20:04.314Z,28.10
2019-03-24T03:22:30.427Z,30.63
2019-03-24T03:24:56.646Z,23.83
2019-03-24T03:27:23.853Z,25.80
2019-03-24T03:29:49.996Z,31.90
2019-03-24T03:32:16.134Z,27.35
2019-03-24T03:34:42.295Z,21.23
2019-03-24T03:37:08.439Z,23.15
2019-03-24T03:39:34.548Z,24.85
2019-03-24T03:42:00.698Z,27.10
2019-03-24T03:44:26.828Z,27.32
2019-03-24T03:46:53.451Z,22.02
2019-03-24T03:49:19.741Z,25.52
2019-03-24T03:51:45.786Z,20.62
2019-03-24T03:54:12.116Z,24.65
2019-03-24T03:56:38.252Z,22.30
2019-03-24T03:59:04.393Z,26.97
2019-03-24T04:01:30.933Z,26.70
2019-03-24T04:03:56.962Z,28.85
2019-03-24T04:06:23.119Z,24.80
2019-03-24T04:08:49.193Z,30.57
2019-03-24T04:11:15.376Z,22.65
2019-03-24T04:13:41.514Z,27.10
2019-03-24T04:16:07.669Z,23.25
2019-03-24T04:18:33.683Z,20.55
2019-03-24T04:20:59.744Z,26.42
2019-03-24T04:23:25.893Z,32.40
2019-03-24T04:25:51.921Z,33.23
2019-03-24T04:28:18.076Z,32.10
2019-03-24T04:30:46.528Z,39.55
2019-03-24T04:33:12.662Z,48.17
2019-03-24T04:35:38.761Z,44.67
2019-03-24T04:38:04.878Z,47.35
2019-03-24T04:40:31.212Z,41.37
2019-03-24T04:42:57.337Z,37.23
2019-03-24T04:45:23.484Z,35.40
2019-03-24T04:47:49.513Z,33.78
2019-03-24T04:50:15.717Z,35.48
2019-03-24T04:52:41.851Z,32.55
2019-03-24T04:55:08.628Z,48.02
2019-03-24T04:57:34.776Z,53.08
2019-03-24T05:00:01.329Z,59.80
2019-03-24T05:02:28.780Z,45.58
2019-03-24T05:04:54.874Z,45.50
2019-03-24T05:07:21.023Z,46.05
2019-03-24T05:09:47.393Z,38.80
2019-03-24T05:12:13.513Z,42.55
2019-03-24T05:14:39.564Z,39.80
2019-03-24T05:17:05.734Z,38.02
2019-03-24T05:19:31.858Z,37.50
2019-03-24T05:21:57.834Z,54.60
2019-03-24T05:24:23.959Z,63.55
2019-03-24T05:26:50.141Z,70.65
2019-03-24T05:29:16.181Z,65.62
2019-03-24T05:31:42.302Z,50.95
2019-03-24T05:34:08.425Z,44.20
2019-03-24T05:36:34.365Z,43.05
2019-03-24T05:39:00.483Z,38.35
2019-03-24T05:41:26.507Z,39.45
2019-03-24T05:43:52.728Z,58.75
2019-03-24T05:46:18.895Z,49.45
2019-03-24T05:48:45.069Z,47.25
2019-03-24T05:51:11.239Z,59.23
2019-03-24T05:53:37.361Z,64.92
2019-03-24T05:56:03.485Z,57.75
2019-03-24T05:58:29.616Z,59.88
2019-03-24T06:00:55.755Z,61.95
2019-03-24T06:03:21.892Z,55.08
2019-03-24T06:05:48.013Z,62.17
2019-03-24T06:08:14.140Z,54.65
2019-03-24T06:10:44.413Z,62.15
2019-03-24T06:13:08.325Z,52.13
2019-03-24T06:15:34.484Z,47.30
2019-03-24T06:18:00.604Z,50.75
2019-03-24T06:20:26.641Z,60.67
2019-03-24T06:22:52.803Z,52.65
2019-03-24T06:25:18.932Z,50.12
2019-03-24T06:27:44.997Z,62.95
2019-03-24T06:30:11.131Z,55.25
2019-03-24T06:32:37.277Z,61.58
2019-03-24T06:35:04.928Z,63.70
2019-03-24T06:37:31.097Z,59.35
2019-03-24T06:39:57.218Z,59.35
2019-03-24T06:42:23.188Z,55.63
2019-03-24T06:44:49.308Z,56.68
2019-03-24T06:47:15.367Z,63.38
2019-03-24T06:49:41.408Z,52.45
2019-03-24T06:52:07.739Z,79.58
2019-03-24T06:54:33.872Z,67.67
2019-03-24T06:57:00.184Z,64.37
2019-03-24T06:59:26.125Z,70.95
2019-03-24T07:01:52.156Z,72.20
2019-03-24T07:04:18.296Z,71.40
2019-03-24T07:06:44.441Z,66.55
2019-03-24T07:09:10.598Z,77.78
2019-03-24T07:11:36.721Z,68.78
2019-03-24T07:14:02.849Z,71.40
2019-03-24T07:16:28.967Z,68.35
2019-03-24T07:18:55.090Z,72.80
2019-03-24T07:21:21.230Z,87.02
2019-03-24T07:23:47.375Z,79.95
2019-03-24T07:26:13.512Z,88.03
2019-03-24T07:28:40.668Z,68.07
2019-03-24T07:31:06.715Z,67.72
2019-03-24T07:33:32.839Z,66.07
2019-03-24T07:35:59.070Z,73.35
2019-03-24T07:38:25.236Z,80.95
2019-03-24T07:40:51.385Z,68.00
2019-03-24T07:43:17.620Z,51.05
2019-03-24T07:45:43.778Z,69.70
2019-03-24T07:48:18.651Z,104.47
2019-03-24T07:50:40.003Z,97.20
2019-03-24T07:53:06.149Z,102.62
2019-03-24T07:55:32.280Z,125.95
2019-03-24T07:57:58.408Z,104.50
2019-03-24T08:00:33.310Z,103.62
2019-03-24T08:02:59.588Z,103.78
2019-03-24T08:05:25.818Z,95.70
2019-03-24T08:07:54.071Z,109.22
2019-03-24T08:10:20.881Z,105.30
2019-03-24T08:12:47.569Z,107.65
2019-03-24T08:15:18.803Z,120.15
2019-03-24T08:17:45.221Z,107.95
2019-03-24T08:20:13.872Z,121.30
2019-03-24T08:22:40.015Z,116.20
2019-03-24T08:25:06.351Z,113.85
2019-03-24T08:27:32.604Z,106.87
2019-03-24T08:29:58.760Z,103.38
2019-03-24T08:32:24.915Z,98.50
2019-03-24T08:34:51.084Z,104.72
2019-03-24T08:37:17.223Z,134.80
2019-03-24T08:39:43.362Z,137.62
2019-03-24T08:42:09.647Z,169.43
2019-03-24T08:44:35.892Z,156.45
2019-03-24T08:47:02.013Z,138.60
2019-03-24T08:49:28.233Z,124.55
2019-03-24T08:51:54.330Z,141.25
2019-03-24T08:54:20.721Z,146.45
2019-03-24T08:56:47.351Z,126.50
2019-03-24T08:59:13.607Z,159.82
2019-03-24T09:01:39.957Z,157.57
2019-03-24T09:04:16.462Z,149.72
2019-03-24T09:06:40.357Z,177.95
2019-03-24T09:09:06.750Z,178.50
2019-03-24T09:11:35.212Z,165.10
2019-03-24T09:14:01.624Z,156.18
2019-03-24T09:16:27.923Z,137.05
2019-03-24T09:18:54.190Z,174.62
2019-03-24T09:21:23.754Z,166.57
2019-03-24T09:23:57.360Z,162.35
2019-03-24T09:26:23.718Z,152.05
2019-03-24T09:28:59.204Z,140.30
2019-03-24T09:31:25.660Z,153.95
2019-03-24T09:34:45.163Z,143.60
2019-03-24T09:37:01.340Z,129.78
2019-03-24T09:40:00.469Z,131.82
2019-03-24T09:45:37.122Z,118.08
2019-03-24T09:48:21.939Z,125.53
2019-03-24T10:07:07.220Z,120.42
2019-03-24T10:09:33.590Z,122.28
2019-03-24T10:12:00.205Z,113.20
2019-03-24T10:14:26.957Z,107.72
2019-03-24T10:16:55.616Z,108.00
2019-03-24T10:19:35.571Z,108.95
2019-03-24T10:22:04.924Z,92.85
2019-03-24T10:24:33.235Z,100.05
2019-03-24T10:26:59.984Z,106.58
2019-03-24T10:29:26.234Z,97.05
2019-03-24T10:32:18.719Z,104.45
2019-03-24T10:34:45.242Z,95.75
2019-03-24T10:37:11.800Z,94.47
2019-03-24T10:39:40.158Z,95.75
2019-03-24T10:42:06.492Z,92.45
2019-03-24T10:44:33.054Z,90.38
2019-03-24T10:47:08.421Z,91.30
2019-03-24T10:49:34.706Z,83.25
2019-03-24T10:52:09.659Z,80.50
2019-03-24T10:54:36.140Z,84.03
2019-03-24T10:57:11.232Z,96.97
2019-03-24T10:59:37.670Z,88.05
2019-03-24T11:05:59.714Z,88.20
2019-03-24T11:08:27.426Z,82.55
2019-03-24T11:10:53.894Z,93.87
2019-03-24T11:13:21.705Z,81.75
2019-03-24T11:15:48.116Z,74.40
2019-03-24T11:18:14.828Z,92.60
2019-03-24T11:20:41.404Z,75.95
2019-03-24T11:23:08.062Z,79.37
2019-03-24T11:25:48.647Z,86.00
2019-03-24T11:28:15.485Z,81.70
2019-03-24T11:30:47.051Z,98.67
2019-03-24T11:33:13.354Z,85.10
2019-03-24T11:35:39.912Z,76.42
2019-03-24T11:38:06.679Z,79.55
2019-03-24T11:43:41.127Z,74.97
2019-03-24T11:49:16.420Z,76.85
2019-03-24T11:51:42.791Z,82.70
2019-03-24T11:54:09.100Z,83.50
2019-03-24T11:56:35.330Z,85.35
2019-03-24T11:59:01.590Z,92.15
2019-03-24T12:01:37.760Z,83.72
2019-03-24T12:03:56.140Z,85.10
2019-03-24T12:06:22.434Z,83.25
2019-03-24T12:08:48.807Z,79.97
2019-03-24T12:11:15.109Z,89.85
2019-03-24T12:13:41.379Z,82.00
2019-03-24T12:16:07.734Z,86.40
2019-03-24T12:18:34.450Z,82.02
2019-03-24T12:21:00.759Z,77.95
2019-03-24T12:23:27.005Z,92.70
2019-03-24T12:25:53.293Z,79.97
2019-03-24T12:28:19.589Z,86.40
2019-03-24T12:30:45.856Z,82.72
2019-03-24T12:33:12.133Z,86.02
2019-03-24T12:35:38.379Z,91.90
2019-03-24T12:38:04.674Z,85.35
2019-03-24T12:40:31.020Z,83.35
2019-03-24T12:42:57.271Z,83.42
2019-03-24T12:45:23.511Z,82.35
2019-03-24T12:47:49.815Z,83.50
2019-03-24T12:50:16.936Z,81.85
2019-03-24T12:52:43.228Z,74.27
2019-03-24T12:55:09.529Z,83.07
2019-03-24T12:57:35.837Z,78.52
2019-03-24T13:00:08.062Z,72.87
2019-03-24T13:02:34.422Z,79.00
2019-03-24T13:05:00.693Z,80.50
2019-03-24T13:07:27.015Z,81.00
2019-03-24T13:09:53.341Z,76.97
2019-03-24T13:12:19.682Z,72.92
2019-03-24T13:14:45.989Z,69.97
2019-03-24T13:17:12.273Z,76.45
2019-03-24T13:19:38.678Z,70.92
2019-03-24T13:22:04.983Z,69.22
2019-03-24T13:24:31.365Z,74.75
2019-03-24T13:27:00.588Z,74.27
2019-03-24T13:29:26.887Z,73.42
2019-03-24T13:31:53.156Z,72.58
2019-03-24T13:34:22.240Z,77.37
2019-03-24T13:36:48.590Z,76.37
2019-03-24T13:39:14.909Z,71.65
2019-03-24T13:41:41.176Z,71.17
2019-03-24T13:44:07.435Z,71.65
2019-03-24T13:46:33.704Z,73.37
2019-03-24T13:49:01.381Z,65.45
2019-03-24T13:51:27.651Z,69.70
2019-03-24T13:53:53.899Z,65.00
2019-03-24T13:56:20.259Z,67.32
2019-03-24T13:58:46.572Z,66.80
2019-03-24T14:01:13.296Z,64.92
2019-03-24T14:03:39.577Z,60.98
2019-03-24T14:06:06.344Z,75.20
2019-03-24T14:08:32.613Z,62.33
2019-03-24T14:10:58.849Z,70.28
2019-03-24T14:13:25.128Z,68.87
2019-03-24T14:15:51.406Z,70.40
2019-03-24T14:18:17.650Z,74.90
2019-03-24T14:20:45.814Z,62.55
2019-03-24T14:23:14.295Z,67.70
2019-03-24T14:25:40.441Z,59.00
2019-03-24T14:28:06.733Z,63.30
2019-03-24T14:30:40.557Z,66.30
2019-03-24T14:33:06.793Z,60.03
2019-03-24T14:35:33.064Z,58.70
2019-03-24T14:37:59.349Z,54.27
2019-03-24T14:40:25.809Z,52.20
2019-03-24T14:42:52.089Z,57.27
2019-03-24T14:45:18.366Z,49.40
2019-03-24T14:47:44.672Z,52.27
2019-03-24T14:50:11.063Z,54.25
2019-03-24T14:52:38.739Z,53.87
2019-03-24T14:55:06.776Z,59.00
2019-03-24T14:57:33.083Z,59.18
2019-03-24T14:59:59.356Z,58.87
2019-03-24T15:02:25.636Z,77.47
2019-03-24T15:04:51.885Z,72.70
2019-03-24T15:07:18.131Z,63.20
2019-03-24T15:09:47.429Z,64.77
2019-03-24T15:14:39.826Z,57.60
2019-03-24T15:17:06.045Z,54.50
2019-03-24T15:19:32.396Z,49.77
2019-03-24T15:21:58.626Z,54.38
2019-03-24T15:24:24.897Z,56.00
2019-03-24T15:26:51.160Z,60.75
2019-03-24T15:29:17.458Z,70.28
2019-03-24T15:31:43.709Z,98.50
2019-03-24T15:34:09.709Z,80.57
2019-03-24T15:36:36.133Z,87.35
2019-03-24T15:39:06.097Z,67.87
2019-03-24T15:41:32.414Z,72.90
2019-03-24T15:43:58.724Z,51.10
2019-03-24T15:46:24.886Z,53.55
2019-03-24T15:48:51.276Z,56.13
2019-03-24T15:51:17.570Z,57.13
2019-03-24T15:53:47.044Z,69.05
2019-03-24T15:56:13.369Z,62.25
2019-03-24T15:58:39.668Z,54.53
2019-03-24T16:01:06.109Z,53.35
2019-03-24T16:03:32.339Z,49.90
2019-03-24T16:05:58.503Z,85.62
2019-03-24T16:08:24.793Z,78.28
2019-03-24T16:10:52.255Z,47.70
2019-03-24T16:13:18.608Z,65.15
2019-03-24T16:15:44.828Z,52.48
2019-03-24T16:18:11.202Z,51.28
2019-03-24T16:20:37.481Z,44.77
2019-03-24T16:23:04.010Z,42.60
2019-03-24T16:25:30.294Z,39.13
2019-03-24T16:27:57.076Z,39.20
2019-03-24T16:30:23.401Z,39.10
2019-03-24T16:32:49.522Z,42.40
2019-03-24T16:35:15.779Z,46.37
2019-03-24T16:37:42.032Z,40.60
2019-03-24T16:40:08.366Z,38.83
2019-03-24T16:42:34.492Z,39.35
2019-03-24T16:45:00.612Z,41.30
2019-03-24T16:47:26.845Z,37.38
2019-03-24T16:49:52.943Z,36.80
2019-03-24T16:52:19.092Z,36.20
2019-03-24T16:54:47.135Z,35.40
2019-03-24T16:57:13.659Z,38.10
2019-03-24T16:59:39.782Z,38.60
2019-03-24T17:02:06.033Z,40.85
2019-03-24T17:04:32.269Z,36.83
2019-03-24T17:07:00.382Z,38.50
2019-03-24T17:09:26.705Z,31.93
2019-03-24T17:11:53.141Z,33.35
2019-03-24T17:14:19.628Z,46.15
2019-03-24T17:16:51.885Z,35.85
2019-03-24T17:19:18.143Z,38.90
2019-03-24T17:21:49.789Z,33.50
2019-03-24T17:24:12.670Z,36.08
2019-03-24T17:26:38.931Z,29.70
2019-03-24T17:29:05.176Z,34.08
2019-03-24T17:31:31.469Z,39.73
2019-03-24T17:33:57.732Z,28.57
2019-03-24T17:36:24.060Z,32.45
2019-03-24T17:38:50.238Z,33.00
2019-03-24T17:41:20.349Z,30.45
2019-03-24T17:43:46.509Z,31.35
2019-03-24T17:46:12.819Z,31.40
2019-03-24T17:48:39.058Z,41.77
2019-03-24T17:51:05.299Z,34.53
2019-03-24T17:53:31.604Z,30.00
2019-03-24T17:55:57.904Z,30.48
2019-03-24T17:58:24.139Z,37.00
2019-03-24T18:00:52.193Z,38.08
2019-03-24T18:03:18.481Z,40.73
2019-03-24T18:05:51.874Z,46.37
2019-03-24T18:08:15.664Z,45.70
2019-03-24T18:10:41.923Z,37.42
2019-03-24T18:13:08.228Z,42.78
2019-03-24T18:15:34.413Z,37.78
2019-03-24T18:18:00.705Z,43.75
2019-03-24T18:20:28.923Z,41.98
2019-03-24T18:22:55.074Z,45.52
2019-03-24T18:25:27.294Z,50.58
2019-03-24T18:27:49.517Z,49.53
2019-03-24T18:30:16.085Z,39.20
2019-03-24T18:32:42.382Z,31.45
2019-03-24T18:35:08.922Z,30.82
2019-03-24T18:37:35.118Z,29.52
2019-03-24T18:40:01.427Z,32.10
2019-03-24T18:42:28.840Z,38.92
2019-03-24T18:44:55.230Z,34.25
2019-03-24T18:47:21.490Z,29.92
2019-03-24T18:49:47.795Z,40.35
2019-03-24T18:52:22.328Z,43.28
2019-03-24T18:54:43.290Z,36.55
2019-03-24T18:57:10.717Z,33.13
2019-03-24T18:59:37.075Z,38.38
2019-03-24T19:02:03.304Z,32.42
2019-03-24T19:04:29.551Z,32.88
2019-03-24T19:06:55.797Z,29.35
2019-03-24T19:09:21.985Z,76.90
2019-03-24T19:11:48.119Z,93.90
2019-03-24T19:14:14.355Z,72.15
2019-03-24T19:16:40.394Z,57.50
2019-03-24T19:19:06.776Z,49.33
2019-03-24T19:21:33.155Z,43.40
2019-03-24T19:23:59.530Z,34.35
2019-03-24T19:28:54.213Z,51.30
2019-03-24T19:31:20.499Z,36.08
2019-03-24T19:33:46.825Z,34.27
2019-03-24T19:36:13.129Z,36.33
2019-03-24T19:38:40.386Z,36.08
2019-03-24T19:41:06.653Z,36.30
2019-03-24T19:43:32.966Z,52.78
2019-03-24T19:45:59.408Z,38.67
2019-03-24T19:48:25.782Z,38.80
2019-03-24T19:50:52.091Z,34.58
2019-03-24T19:53:18.373Z,91.35
2019-03-24T19:55:44.618Z,54.45
2019-03-24T19:58:10.893Z,41.15
2019-03-24T20:00:38.879Z,38.80
2019-03-24T20:03:05.243Z,28.42
2019-03-24T20:05:31.425Z,27.17
2019-03-24T20:07:57.681Z,27.52
2019-03-24T20:10:23.980Z,26.57
2019-03-24T20:12:50.140Z,31.75
2019-03-24T20:15:16.451Z,35.05
2019-03-24T20:17:42.735Z,38.10
2019-03-24T20:20:09.185Z,36.00
2019-03-24T20:22:35.472Z,31.55
2019-03-24T20:25:01.770Z,28.70
2019-03-24T20:27:28.075Z,33.75
2019-03-24T20:29:54.346Z,29.52
2019-03-24T20:32:20.634Z,31.15
2019-03-24T20:34:46.873Z,26.05
2019-03-24T20:37:13.141Z,26.37
2019-03-24T20:39:39.327Z,21.85
2019-03-24T20:42:05.618Z,30.32
2019-03-24T20:44:31.873Z,53.80
2019-03-24T20:46:58.045Z,40.35
2019-03-24T20:49:24.336Z,42.33
2019-03-24T20:51:50.574Z,39.65
2019-03-24T20:54:16.863Z,33.08
2019-03-24T20:56:43.123Z,25.02
2019-03-24T20:59:09.447Z,29.52
2019-03-24T21:01:35.730Z,26.90
2019-03-24T21:04:01.972Z,18.10
2019-03-24T21:06:28.331Z,25.95
2019-03-24T21:08:54.604Z,24.05
2019-03-24T21:11:20.843Z,24.35
2019-03-24T21:13:47.220Z,30.52
2019-03-24T21:16:13.433Z,40.50
2019-03-24T21:18:39.682Z,26.02
2019-03-24T21:21:06.012Z,38.98
2019-03-24T21:23:32.260Z,46.92
2019-03-24T21:25:58.498Z,39.63
2019-03-24T21:28:24.756Z,50.33
2019-03-24T21:30:50.991Z,52.38
2019-03-24T21:33:17.253Z,49.50
2019-03-24T21:35:43.507Z,48.98
2019-03-24T21:38:09.753Z,51.77
2019-03-24T21:40:37.871Z,24.77
2019-03-24T21:43:06.488Z,27.77
2019-03-24T21:45:34.692Z,34.53
2019-03-24T21:48:00.899Z,42.00
2019-03-24T21:50:27.158Z,40.95
2019-03-24T21:52:53.283Z,42.25
2019-03-24T21:55:19.556Z,29.42
2019-03-24T21:57:56.920Z,31.80
2019-03-24T22:00:17.580Z,33.78
2019-03-24T22:02:43.708Z,25.77
2019-03-24T22:05:09.859Z,26.93
2019-03-24T22:07:36.114Z,31.40
2019-03-24T22:10:04.248Z,32.05
2019-03-24T22:12:33.277Z,24.18
2019-03-24T22:14:59.459Z,25.43
2019-03-24T22:17:25.718Z,27.17
2019-03-24T22:19:51.912Z,23.27
2019-03-24T22:22:20.828Z,24.67
2019-03-24T22:24:47.083Z,28.52
2019-03-24T22:27:13.359Z,29.92
2019-03-24T22:29:41.879Z,32.45
2019-03-24T22:32:08.039Z,29.07
2019-03-24T22:34:34.325Z,25.52
2019-03-24T22:37:00.371Z,26.73
2019-03-24T22:39:26.642Z,37.45
2019-03-24T22:41:52.803Z,47.25
2019-03-24T22:44:19.334Z,47.62
2019-03-24T22:46:45.486Z,39.98
2019-03-24T22:49:13.604Z,43.25
2019-03-24T22:51:39.837Z,35.45
2019-03-24T22:54:05.984Z,30.88
2019-03-24T22:56:32.106Z,44.90
2019-03-24T22:58:58.334Z,55.90
2019-03-24T23:01:24.598Z,49.53
2019-03-24T23:03:50.904Z,42.78
2019-03-24T23:06:17.151Z,46.53
2019-03-24T23:08:43.387Z,42.73
2019-03-24T23:11:09.517Z,48.68
2019-03-24T23:13:35.759Z,63.92
2019-03-24T23:16:01.932Z,65.17
2019-03-24T23:18:28.063Z,58.05
2019-03-24T23:20:54.362Z,40.50
2019-03-24T23:23:20.468Z,41.73
2019-03-24T23:25:46.740Z,38.98
2019-03-24T23:28:12.989Z,35.55
2019-03-24T23:30:39.251Z,38.55
2019-03-24T23:33:05.379Z,50.88
2019-03-24T23:35:31.600Z,42.55
2019-03-24T23:37:57.825Z,41.48
2019-03-24T23:40:24.460Z,40.63
2019-03-24T23:42:52.504Z,43.78
2019-03-24T23:45:19.462Z,46.05
2019-03-24T23:47:45.734Z,41.48
2019-03-24T23:50:12.077Z,40.50
2019-03-24T23:52:38.320Z,42.03
2019-03-24T23:55:04.790Z,39.65
2019-03-24T23:57:32.819Z,41.15
2019-03-24T23:59:58.966Z,42.08
